sensor_id;sensor_type;location;lat;lon;timestamp;P1;durP1;ratioP1;P2;durP2;ratioP2
24279;SDS011;12395;42.808;23.408;2022-11-15T00:01:31;33.30;;;14.83;;
24279;SDS011;12395;42.808;23.408;2022-11-15T00:03:56;33.03;;;14.37;;
24279;SDS011;12395;42.808;23.408;2022-11-15T00:06:22;34.77;;;15.67;;
24279;SDS011;12395;42.808;23.408;2022-11-15T00:08:47;30.13;;;13.37;;
24279;SDS011;12395;42.808;23.408;2022-11-15T00:11:12;31.60;;;14.20;;
24279;SDS011;12395;42.808;23.408;2022-11-15T00:13:39;28.43;;;13.47;;
24279;SDS011;12395;42.808;23.408;2022-11-15T00:16:05;32.93;;;14.00;;
24279;SDS011;12395;42.808;23.408;2022-11-15T00:18:30;30.30;;;13.43;;
24279;SDS011;12395;42.808;23.408;2022-11-15T00:20:56;28.90;;;13.00;;
24279;SDS011;12395;42.808;23.408;2022-11-15T00:23:28;30.20;;;13.63;;
24279;SDS011;12395;42.808;23.408;2022-11-15T00:25:57;31.70;;;13.93;;
24279;SDS011;12395;42.808;23.408;2022-11-15T00:28:23;28.13;;;13.10;;
24279;SDS011;12395;42.808;23.408;2022-11-15T00:30:49;31.67;;;13.90;;
24279;SDS011;12395;42.808;23.408;2022-11-15T00:33:15;30.63;;;13.30;;
24279;SDS011;12395;42.808;23.408;2022-11-15T00:35:40;31.23;;;13.20;;
24279;SDS011;12395;42.808;23.408;2022-11-15T00:38:06;32.80;;;13.63;;
24279;SDS011;12395;42.808;23.408;2022-11-15T00:40:31;34.63;;;13.63;;
24279;SDS011;12395;42.808;23.408;2022-11-15T00:42:57;33.57;;;14.33;;
24279;SDS011;12395;42.808;23.408;2022-11-15T00:45:23;28.57;;;13.17;;
24279;SDS011;12395;42.808;23.408;2022-11-15T00:47:49;29.57;;;13.23;;
24279;SDS011;12395;42.808;23.408;2022-11-15T00:50:15;26.13;;;12.23;;
24279;SDS011;12395;42.808;23.408;2022-11-15T00:52:41;24.00;;;11.33;;
24279;SDS011;12395;42.808;23.408;2022-11-15T00:55:07;24.40;;;11.90;;
24279;SDS011;12395;42.808;23.408;2022-11-15T00:57:42;25.23;;;11.77;;
24279;SDS011;12395;42.808;23.408;2022-11-15T01:00:08;32.27;;;13.23;;
24279;SDS011;12395;42.808;23.408;2022-11-15T01:02:34;31.57;;;13.73;;
24279;SDS011;12395;42.808;23.408;2022-11-15T01:05:00;27.67;;;12.70;;
24279;SDS011;12395;42.808;23.408;2022-11-15T01:07:25;30.10;;;12.67;;
24279;SDS011;12395;42.808;23.408;2022-11-15T01:09:51;27.53;;;12.37;;
24279;SDS011;12395;42.808;23.408;2022-11-15T01:12:16;31.47;;;13.13;;
24279;SDS011;12395;42.808;23.408;2022-11-15T01:14:41;30.33;;;13.70;;
24279;SDS011;12395;42.808;23.408;2022-11-15T01:17:07;32.87;;;14.37;;
24279;SDS011;12395;42.808;23.408;2022-11-15T01:19:32;31.53;;;13.73;;
24279;SDS011;12395;42.808;23.408;2022-11-15T01:21:58;28.60;;;13.27;;
24279;SDS011;12395;42.808;23.408;2022-11-15T01:24:23;31.47;;;13.70;;
24279;SDS011;12395;42.808;23.408;2022-11-15T01:26:48;32.57;;;13.07;;
24279;SDS011;12395;42.808;23.408;2022-11-15T01:29:14;26.63;;;11.83;;
24279;SDS011;12395;42.808;23.408;2022-11-15T01:31:39;31.20;;;13.37;;
24279;SDS011;12395;42.808;23.408;2022-11-15T01:34:04;29.63;;;12.90;;
24279;SDS011;12395;42.808;23.408;2022-11-15T01:36:30;31.63;;;13.30;;
24279;SDS011;12395;42.808;23.408;2022-11-15T01:38:56;28.03;;;11.80;;
24279;SDS011;12395;42.808;23.408;2022-11-15T01:41:23;31.52;;;13.10;;
24279;SDS011;12395;42.808;23.408;2022-11-15T01:43:55;25.37;;;11.37;;
24279;SDS011;12395;42.808;23.408;2022-11-15T01:48:54;24.27;;;10.90;;
24279;SDS011;12395;42.808;23.408;2022-11-15T01:51:25;25.10;;;11.50;;
24279;SDS011;12395;42.808;23.408;2022-11-15T01:53:52;25.80;;;11.50;;
24279;SDS011;12395;42.808;23.408;2022-11-15T01:56:23;26.03;;;11.87;;
24279;SDS011;12395;42.808;23.408;2022-11-15T01:58:53;28.43;;;12.30;;
24279;SDS011;12395;42.808;23.408;2022-11-15T02:01:22;29.87;;;13.13;;
24279;SDS011;12395;42.808;23.408;2022-11-15T02:03:52;29.03;;;13.03;;
24279;SDS011;12395;42.808;23.408;2022-11-15T02:06:22;32.07;;;13.57;;
24279;SDS011;12395;42.808;23.408;2022-11-15T02:08:48;35.10;;;14.80;;
24279;SDS011;12395;42.808;23.408;2022-11-15T02:11:15;40.47;;;16.13;;
24279;SDS011;12395;42.808;23.408;2022-11-15T02:13:40;37.03;;;15.33;;
24279;SDS011;12395;42.808;23.408;2022-11-15T02:16:20;35.03;;;13.83;;
24279;SDS011;12395;42.808;23.408;2022-11-15T02:24:31;32.37;;;13.60;;
24279;SDS011;12395;42.808;23.408;2022-11-15T02:30:25;31.47;;;13.60;;
24279;SDS011;12395;42.808;23.408;2022-11-15T02:32:58;27.20;;;12.07;;
24279;SDS011;12395;42.808;23.408;2022-11-15T02:35:43;34.83;;;14.87;;
24279;SDS011;12395;42.808;23.408;2022-11-15T02:41:30;43.47;;;19.48;;
24279;SDS011;12395;42.808;23.408;2022-11-15T02:44:06;57.83;;;24.23;;
24279;SDS011;12395;42.808;23.408;2022-11-15T02:46:36;37.97;;;16.00;;
24279;SDS011;12395;42.808;23.408;2022-11-15T02:49:24;34.90;;;14.93;;
24279;SDS011;12395;42.808;23.408;2022-11-15T02:51:53;35.90;;;15.53;;
24279;SDS011;12395;42.808;23.408;2022-11-15T02:56:54;33.33;;;13.80;;
24279;SDS011;12395;42.808;23.408;2022-11-15T03:10:19;40.27;;;16.23;;
24279;SDS011;12395;42.808;23.408;2022-11-15T03:15:53;38.47;;;15.17;;
24279;SDS011;12395;42.808;23.408;2022-11-15T03:18:41;34.83;;;14.23;;
24279;SDS011;12395;42.808;23.408;2022-11-15T03:21:11;34.47;;;14.27;;
24279;SDS011;12395;42.808;23.408;2022-11-15T03:23:39;42.23;;;16.87;;
24279;SDS011;12395;42.808;23.408;2022-11-15T03:26:07;34.55;;;14.75;;
24279;SDS011;12395;42.808;23.408;2022-11-15T03:28:38;29.77;;;13.70;;
24279;SDS011;12395;42.808;23.408;2022-11-15T03:31:08;36.10;;;16.90;;
24279;SDS011;12395;42.808;23.408;2022-11-15T03:33:57;37.20;;;18.23;;
24279;SDS011;12395;42.808;23.408;2022-11-15T03:36:26;43.40;;;20.87;;
24279;SDS011;12395;42.808;23.408;2022-11-15T03:38:53;48.77;;;24.83;;
24279;SDS011;12395;42.808;23.408;2022-11-15T03:41:23;56.60;;;27.07;;
24279;SDS011;12395;42.808;23.408;2022-11-15T03:43:55;49.57;;;25.27;;
24279;SDS011;12395;42.808;23.408;2022-11-15T03:46:46;45.73;;;24.03;;
24279;SDS011;12395;42.808;23.408;2022-11-15T03:49:38;43.57;;;22.30;;
24279;SDS011;12395;42.808;23.408;2022-11-15T03:52:08;43.58;;;22.42;;
24279;SDS011;12395;42.808;23.408;2022-11-15T03:54:35;41.83;;;21.85;;
24279;SDS011;12395;42.808;23.408;2022-11-15T03:57:01;45.33;;;21.50;;
24279;SDS011;12395;42.808;23.408;2022-11-15T03:59:26;39.17;;;20.47;;
24279;SDS011;12395;42.808;23.408;2022-11-15T04:01:51;44.47;;;22.70;;
24279;SDS011;12395;42.808;23.408;2022-11-15T04:04:17;39.47;;;21.20;;
24279;SDS011;12395;42.808;23.408;2022-11-15T04:06:42;39.60;;;21.27;;
24279;SDS011;12395;42.808;23.408;2022-11-15T04:09:07;40.57;;;22.03;;
24279;SDS011;12395;42.808;23.408;2022-11-15T04:11:33;46.40;;;23.53;;
24279;SDS011;12395;42.808;23.408;2022-11-15T04:13:58;51.53;;;26.27;;
24279;SDS011;12395;42.808;23.408;2022-11-15T04:16:24;50.17;;;26.17;;
24279;SDS011;12395;42.808;23.408;2022-11-15T04:18:49;51.37;;;24.83;;
24279;SDS011;12395;42.808;23.408;2022-11-15T04:21:34;55.50;;;26.93;;
24279;SDS011;12395;42.808;23.408;2022-11-15T04:24:38;54.27;;;27.23;;
24279;SDS011;12395;42.808;23.408;2022-11-15T04:27:03;56.60;;;28.50;;
24279;SDS011;12395;42.808;23.408;2022-11-15T04:29:29;60.60;;;28.97;;
24279;SDS011;12395;42.808;23.408;2022-11-15T04:32:01;58.77;;;28.30;;
24279;SDS011;12395;42.808;23.408;2022-11-15T04:34:27;60.10;;;29.35;;
24279;SDS011;12395;42.808;23.408;2022-11-15T04:36:53;55.07;;;26.83;;
24279;SDS011;12395;42.808;23.408;2022-11-15T04:39:36;56.70;;;27.67;;
24279;SDS011;12395;42.808;23.408;2022-11-15T04:42:02;59.07;;;28.80;;
24279;SDS011;12395;42.808;23.408;2022-11-15T04:44:27;74.90;;;28.97;;
24279;SDS011;12395;42.808;23.408;2022-11-15T04:46:53;64.90;;;29.53;;
24279;SDS011;12395;42.808;23.408;2022-11-15T04:49:18;67.57;;;29.17;;
24279;SDS011;12395;42.808;23.408;2022-11-15T04:51:44;70.83;;;30.40;;
24279;SDS011;12395;42.808;23.408;2022-11-15T04:54:09;72.60;;;29.93;;
24279;SDS011;12395;42.808;23.408;2022-11-15T04:56:35;71.10;;;30.27;;
24279;SDS011;12395;42.808;23.408;2022-11-15T04:59:00;71.17;;;30.83;;
24279;SDS011;12395;42.808;23.408;2022-11-15T05:01:26;74.10;;;29.63;;
24279;SDS011;12395;42.808;23.408;2022-11-15T05:03:51;79.07;;;30.47;;
24279;SDS011;12395;42.808;23.408;2022-11-15T05:06:35;111.77;;;42.00;;
24279;SDS011;12395;42.808;23.408;2022-11-15T05:09:00;116.93;;;45.50;;
24279;SDS011;12395;42.808;23.408;2022-11-15T05:11:26;102.93;;;36.47;;
24279;SDS011;12395;42.808;23.408;2022-11-15T05:13:52;119.87;;;33.50;;
24279;SDS011;12395;42.808;23.408;2022-11-15T05:16:17;103.87;;;33.53;;
24279;SDS011;12395;42.808;23.408;2022-11-15T05:18:43;95.30;;;34.80;;
24279;SDS011;12395;42.808;23.408;2022-11-15T05:21:13;109.40;;;37.13;;
24279;SDS011;12395;42.808;23.408;2022-11-15T05:23:40;111.80;;;38.80;;
24279;SDS011;12395;42.808;23.408;2022-11-15T05:26:06;118.23;;;39.53;;
24279;SDS011;12395;42.808;23.408;2022-11-15T05:28:32;112.00;;;39.50;;
24279;SDS011;12395;42.808;23.408;2022-11-15T05:31:05;110.80;;;37.67;;
24279;SDS011;12395;42.808;23.408;2022-11-15T05:33:36;115.33;;;39.40;;
24279;SDS011;12395;42.808;23.408;2022-11-15T05:38:31;135.68;;;36.00;;
24279;SDS011;12395;42.808;23.408;2022-11-15T05:40:58;125.20;;;35.85;;
24279;SDS011;12395;42.808;23.408;2022-11-15T05:43:28;148.33;;;39.03;;
24279;SDS011;12395;42.808;23.408;2022-11-15T05:45:58;136.43;;;35.27;;
24279;SDS011;12395;42.808;23.408;2022-11-15T05:48:24;145.00;;;34.87;;
24279;SDS011;12395;42.808;23.408;2022-11-15T05:50:50;137.77;;;36.90;;
24279;SDS011;12395;42.808;23.408;2022-11-15T05:53:17;128.23;;;38.87;;
24279;SDS011;12395;42.808;23.408;2022-11-15T05:55:45;153.77;;;42.07;;
24279;SDS011;12395;42.808;23.408;2022-11-15T05:58:11;158.40;;;41.10;;
24279;SDS011;12395;42.808;23.408;2022-11-15T06:00:36;159.03;;;39.77;;
24279;SDS011;12395;42.808;23.408;2022-11-15T06:03:02;144.45;;;37.42;;
24279;SDS011;12395;42.808;23.408;2022-11-15T06:05:27;147.00;;;38.47;;
24279;SDS011;12395;42.808;23.408;2022-11-15T06:07:52;135.82;;;39.90;;
24279;SDS011;12395;42.808;23.408;2022-11-15T06:10:22;201.88;;;49.63;;
24279;SDS011;12395;42.808;23.408;2022-11-15T06:12:55;190.37;;;49.40;;
24279;SDS011;12395;42.808;23.408;2022-11-15T06:15:24;200.17;;;49.60;;
24279;SDS011;12395;42.808;23.408;2022-11-15T06:17:50;168.82;;;44.35;;
24279;SDS011;12395;42.808;23.408;2022-11-15T06:20:16;171.00;;;44.97;;
24279;SDS011;12395;42.808;23.408;2022-11-15T06:22:41;170.35;;;44.75;;
24279;SDS011;12395;42.808;23.408;2022-11-15T06:25:06;178.23;;;41.30;;
24279;SDS011;12395;42.808;23.408;2022-11-15T06:27:32;128.10;;;37.47;;
24279;SDS011;12395;42.808;23.408;2022-11-15T06:29:57;176.52;;;55.92;;
24279;SDS011;12395;42.808;23.408;2022-11-15T06:32:23;139.60;;;35.37;;
24279;SDS011;12395;42.808;23.408;2022-11-15T06:34:48;107.60;;;29.65;;
24279;SDS011;12395;42.808;23.408;2022-11-15T06:37:13;110.88;;;27.10;;
24279;SDS011;12395;42.808;23.408;2022-11-15T06:39:39;146.07;;;28.30;;
24279;SDS011;12395;42.808;23.408;2022-11-15T06:42:04;127.15;;;28.52;;
24279;SDS011;12395;42.808;23.408;2022-11-15T06:44:29;137.05;;;31.83;;
24279;SDS011;12395;42.808;23.408;2022-11-15T06:46:55;121.68;;;30.10;;
24279;SDS011;12395;42.808;23.408;2022-11-15T06:49:20;142.93;;;31.45;;
24279;SDS011;12395;42.808;23.408;2022-11-15T06:51:45;121.78;;;28.40;;
24279;SDS011;12395;42.808;23.408;2022-11-15T06:54:11;127.70;;;31.48;;
24279;SDS011;12395;42.808;23.408;2022-11-15T06:56:36;111.35;;;30.67;;
24279;SDS011;12395;42.808;23.408;2022-11-15T06:59:02;115.95;;;29.38;;
24279;SDS011;12395;42.808;23.408;2022-11-15T07:01:27;108.78;;;33.00;;
24279;SDS011;12395;42.808;23.408;2022-11-15T07:03:52;107.63;;;28.90;;
24279;SDS011;12395;42.808;23.408;2022-11-15T07:06:18;102.72;;;29.00;;
24279;SDS011;12395;42.808;23.408;2022-11-15T07:08:43;102.30;;;27.17;;
24279;SDS011;12395;42.808;23.408;2022-11-15T07:11:09;117.90;;;35.83;;
24279;SDS011;12395;42.808;23.408;2022-11-15T07:13:34;98.60;;;32.22;;
24279;SDS011;12395;42.808;23.408;2022-11-15T07:16:05;107.10;;;26.98;;
24279;SDS011;12395;42.808;23.408;2022-11-15T07:18:33;109.38;;;32.35;;
24279;SDS011;12395;42.808;23.408;2022-11-15T07:21:00;97.63;;;26.48;;
24279;SDS011;12395;42.808;23.408;2022-11-15T07:23:27;82.82;;;25.23;;
24279;SDS011;12395;42.808;23.408;2022-11-15T07:25:52;74.60;;;22.52;;
24279;SDS011;12395;42.808;23.408;2022-11-15T07:28:17;52.00;;;18.85;;
24279;SDS011;12395;42.808;23.408;2022-11-15T07:30:43;37.22;;;17.13;;
24279;SDS011;12395;42.808;23.408;2022-11-15T07:33:08;38.05;;;16.27;;
24279;SDS011;12395;42.808;23.408;2022-11-15T07:35:34;46.97;;;19.05;;
24279;SDS011;12395;42.808;23.408;2022-11-15T07:38:00;47.67;;;18.67;;
24279;SDS011;12395;42.808;23.408;2022-11-15T07:40:27;45.28;;;18.70;;
24279;SDS011;12395;42.808;23.408;2022-11-15T07:43:00;44.45;;;17.50;;
24279;SDS011;12395;42.808;23.408;2022-11-15T07:45:26;42.25;;;17.83;;
24279;SDS011;12395;42.808;23.408;2022-11-15T07:47:52;59.88;;;21.50;;
24279;SDS011;12395;42.808;23.408;2022-11-15T07:50:18;44.92;;;19.85;;
24279;SDS011;12395;42.808;23.408;2022-11-15T07:52:44;43.83;;;18.58;;
24279;SDS011;12395;42.808;23.408;2022-11-15T07:55:10;48.55;;;20.38;;
24279;SDS011;12395;42.808;23.408;2022-11-15T07:57:35;69.82;;;23.35;;
24279;SDS011;12395;42.808;23.408;2022-11-15T08:00:01;69.43;;;23.75;;
24279;SDS011;12395;42.808;23.408;2022-11-15T08:02:28;68.80;;;22.60;;
24279;SDS011;12395;42.808;23.408;2022-11-15T08:04:53;73.90;;;22.08;;
24279;SDS011;12395;42.808;23.408;2022-11-15T08:07:18;49.47;;;20.02;;
24279;SDS011;12395;42.808;23.408;2022-11-15T08:09:44;56.92;;;19.92;;
24279;SDS011;12395;42.808;23.408;2022-11-15T08:12:09;60.03;;;21.83;;
24279;SDS011;12395;42.808;23.408;2022-11-15T08:14:35;57.08;;;21.08;;
24279;SDS011;12395;42.808;23.408;2022-11-15T08:17:00;70.40;;;22.83;;
24279;SDS011;12395;42.808;23.408;2022-11-15T08:19:26;77.80;;;26.77;;
24279;SDS011;12395;42.808;23.408;2022-11-15T08:21:52;63.88;;;23.02;;
24279;SDS011;12395;42.808;23.408;2022-11-15T08:24:17;59.67;;;20.63;;
24279;SDS011;12395;42.808;23.408;2022-11-15T08:26:43;62.03;;;20.23;;
24279;SDS011;12395;42.808;23.408;2022-11-15T08:29:08;58.95;;;21.13;;
24279;SDS011;12395;42.808;23.408;2022-11-15T08:31:34;53.00;;;22.38;;
24279;SDS011;12395;42.808;23.408;2022-11-15T08:34:01;59.75;;;22.15;;
24279;SDS011;12395;42.808;23.408;2022-11-15T08:36:28;59.05;;;23.00;;
24279;SDS011;12395;42.808;23.408;2022-11-15T08:38:53;50.72;;;19.50;;
24279;SDS011;12395;42.808;23.408;2022-11-15T08:41:30;43.92;;;17.90;;
24279;SDS011;12395;42.808;23.408;2022-11-15T08:43:57;43.72;;;19.73;;
24279;SDS011;12395;42.808;23.408;2022-11-15T08:46:22;43.95;;;19.17;;
24279;SDS011;12395;42.808;23.408;2022-11-15T08:48:47;44.85;;;19.83;;
24279;SDS011;12395;42.808;23.408;2022-11-15T08:51:13;53.00;;;18.85;;
24279;SDS011;12395;42.808;23.408;2022-11-15T08:53:38;48.17;;;18.48;;
24279;SDS011;12395;42.808;23.408;2022-11-15T08:56:07;79.63;;;23.25;;
24279;SDS011;12395;42.808;23.408;2022-11-15T08:58:33;56.63;;;24.83;;
24279;SDS011;12395;42.808;23.408;2022-11-15T09:00:59;60.00;;;26.10;;
24279;SDS011;12395;42.808;23.408;2022-11-15T09:03:24;55.45;;;23.27;;
24279;SDS011;12395;42.808;23.408;2022-11-15T09:05:53;58.60;;;21.45;;
24279;SDS011;12395;42.808;23.408;2022-11-15T09:08:23;43.05;;;19.95;;
24279;SDS011;12395;42.808;23.408;2022-11-15T09:10:49;41.90;;;19.55;;
24279;SDS011;12395;42.808;23.408;2022-11-15T09:13:15;47.58;;;20.00;;
24279;SDS011;12395;42.808;23.408;2022-11-15T09:15:40;50.95;;;20.20;;
24279;SDS011;12395;42.808;23.408;2022-11-15T09:18:06;50.00;;;22.63;;
24279;SDS011;12395;42.808;23.408;2022-11-15T09:20:31;45.03;;;22.70;;
24279;SDS011;12395;42.808;23.408;2022-11-15T09:23:00;46.58;;;21.42;;
24279;SDS011;12395;42.808;23.408;2022-11-15T09:25:26;44.97;;;20.55;;
24279;SDS011;12395;42.808;23.408;2022-11-15T09:27:51;44.63;;;20.08;;
24279;SDS011;12395;42.808;23.408;2022-11-15T09:30:17;42.00;;;19.75;;
24279;SDS011;12395;42.808;23.408;2022-11-15T09:32:42;39.60;;;19.40;;
24279;SDS011;12395;42.808;23.408;2022-11-15T09:35:08;35.70;;;17.65;;
24279;SDS011;12395;42.808;23.408;2022-11-15T09:37:33;38.53;;;19.23;;
24279;SDS011;12395;42.808;23.408;2022-11-15T09:39:59;41.83;;;19.35;;
24279;SDS011;12395;42.808;23.408;2022-11-15T09:50:15;30.42;;;14.65;;
24279;SDS011;12395;42.808;23.408;2022-11-15T09:52:52;26.33;;;13.45;;
24279;SDS011;12395;42.808;23.408;2022-11-15T09:55:17;27.05;;;14.82;;
24279;SDS011;12395;42.808;23.408;2022-11-15T10:00:56;32.75;;;15.90;;
24279;SDS011;12395;42.808;23.408;2022-11-15T10:03:33;39.92;;;19.60;;
24279;SDS011;12395;42.808;23.408;2022-11-15T10:06:01;56.42;;;27.23;;
24279;SDS011;12395;42.808;23.408;2022-11-15T10:08:35;43.40;;;21.23;;
24279;SDS011;12395;42.808;23.408;2022-11-15T10:11:12;33.15;;;16.20;;
24279;SDS011;12395;42.808;23.408;2022-11-15T10:13:43;31.13;;;16.38;;
24279;SDS011;12395;42.808;23.408;2022-11-15T10:21:27;38.47;;;19.05;;
24279;SDS011;12395;42.808;23.408;2022-11-15T10:24:10;40.72;;;20.08;;
24279;SDS011;12395;42.808;23.408;2022-11-15T10:26:36;33.05;;;16.73;;
24279;SDS011;12395;42.808;23.408;2022-11-15T10:29:02;36.40;;;18.95;;
24279;SDS011;12395;42.808;23.408;2022-11-15T10:31:28;34.90;;;17.67;;
24279;SDS011;12395;42.808;23.408;2022-11-15T10:34:13;38.85;;;19.10;;
24279;SDS011;12395;42.808;23.408;2022-11-15T10:36:44;36.58;;;18.08;;
24279;SDS011;12395;42.808;23.408;2022-11-15T10:39:12;42.58;;;20.23;;
24279;SDS011;12395;42.808;23.408;2022-11-15T10:41:39;36.08;;;18.02;;
24279;SDS011;12395;42.808;23.408;2022-11-15T10:46:31;34.80;;;18.13;;
24279;SDS011;12395;42.808;23.408;2022-11-15T10:49:13;34.78;;;17.05;;
24279;SDS011;12395;42.808;23.408;2022-11-15T10:51:54;32.88;;;17.77;;
24279;SDS011;12395;42.808;23.408;2022-11-15T10:54:24;35.40;;;17.17;;
24279;SDS011;12395;42.808;23.408;2022-11-15T10:56:57;33.00;;;17.25;;
24279;SDS011;12395;42.808;23.408;2022-11-15T10:59:26;32.67;;;16.63;;
24279;SDS011;12395;42.808;23.408;2022-11-15T11:01:53;34.20;;;18.00;;
24279;SDS011;12395;42.808;23.408;2022-11-15T11:04:19;36.22;;;18.42;;
24279;SDS011;12395;42.808;23.408;2022-11-15T11:06:49;37.45;;;19.08;;
24279;SDS011;12395;42.808;23.408;2022-11-15T11:11:48;32.20;;;16.33;;
24279;SDS011;12395;42.808;23.408;2022-11-15T11:16:47;30.15;;;16.20;;
24279;SDS011;12395;42.808;23.408;2022-11-15T11:19:31;29.38;;;15.45;;
24279;SDS011;12395;42.808;23.408;2022-11-15T11:41:03;40.83;;;20.45;;
24279;SDS011;12395;42.808;23.408;2022-11-15T11:46:55;39.53;;;20.53;;
24279;SDS011;12395;42.808;23.408;2022-11-15T11:49:19;36.30;;;19.05;;
24279;SDS011;12395;42.808;23.408;2022-11-15T11:51:59;39.38;;;20.48;;
24279;SDS011;12395;42.808;23.408;2022-11-15T11:57:30;40.10;;;19.40;;
24279;SDS011;12395;42.808;23.408;2022-11-15T12:00:15;37.22;;;19.27;;
24279;SDS011;12395;42.808;23.408;2022-11-15T12:02:50;39.97;;;20.30;;
24279;SDS011;12395;42.808;23.408;2022-11-15T12:05:22;40.05;;;19.77;;
24279;SDS011;12395;42.808;23.408;2022-11-15T12:08:03;39.70;;;21.00;;
24279;SDS011;12395;42.808;23.408;2022-11-15T12:10:45;43.37;;;23.83;;
24279;SDS011;12395;42.808;23.408;2022-11-15T12:13:16;41.33;;;21.52;;
24279;SDS011;12395;42.808;23.408;2022-11-15T12:15:54;38.85;;;19.90;;
24279;SDS011;12395;42.808;23.408;2022-11-15T12:20:52;40.58;;;21.08;;
24279;SDS011;12395;42.808;23.408;2022-11-15T12:31:40;38.35;;;19.10;;
24279;SDS011;12395;42.808;23.408;2022-11-15T12:36:47;38.25;;;19.85;;
24279;SDS011;12395;42.808;23.408;2022-11-15T12:39:14;38.58;;;20.50;;
24279;SDS011;12395;42.808;23.408;2022-11-15T12:41:42;38.70;;;20.05;;
24279;SDS011;12395;42.808;23.408;2022-11-15T12:44:12;38.42;;;20.65;;
24279;SDS011;12395;42.808;23.408;2022-11-15T12:47:31;41.22;;;21.33;;
24279;SDS011;12395;42.808;23.408;2022-11-15T12:49:51;41.45;;;21.23;;
24279;SDS011;12395;42.808;23.408;2022-11-15T12:52:17;42.13;;;20.42;;
24279;SDS011;12395;42.808;23.408;2022-11-15T12:54:51;43.92;;;23.27;;
24279;SDS011;12395;42.808;23.408;2022-11-15T12:59:59;39.63;;;21.05;;
24279;SDS011;12395;42.808;23.408;2022-11-15T13:02:29;42.10;;;21.67;;
24279;SDS011;12395;42.808;23.408;2022-11-15T13:05:25;41.35;;;22.13;;
24279;SDS011;12395;42.808;23.408;2022-11-15T13:28:38;43.13;;;22.03;;
24279;SDS011;12395;42.808;23.408;2022-11-15T13:31:03;42.70;;;21.50;;
24279;SDS011;12395;42.808;23.408;2022-11-15T13:33:44;45.33;;;22.38;;
24279;SDS011;12395;42.808;23.408;2022-11-15T13:36:22;44.75;;;22.77;;
24279;SDS011;12395;42.808;23.408;2022-11-15T13:38:58;39.83;;;20.80;;
24279;SDS011;12395;42.808;23.408;2022-11-15T13:41:29;44.47;;;23.27;;
24279;SDS011;12395;42.808;23.408;2022-11-15T13:43:57;46.65;;;22.42;;
24279;SDS011;12395;42.808;23.408;2022-11-15T13:46:30;48.92;;;25.15;;
24279;SDS011;12395;42.808;23.408;2022-11-15T13:49:04;46.55;;;25.48;;
24279;SDS011;12395;42.808;23.408;2022-11-15T13:51:44;51.28;;;26.02;;
24279;SDS011;12395;42.808;23.408;2022-11-15T13:56:48;52.60;;;27.55;;
24279;SDS011;12395;42.808;23.408;2022-11-15T13:59:24;53.53;;;27.90;;
24279;SDS011;12395;42.808;23.408;2022-11-15T14:01:54;54.13;;;27.40;;
24279;SDS011;12395;42.808;23.408;2022-11-15T14:04:22;55.42;;;28.38;;
24279;SDS011;12395;42.808;23.408;2022-11-15T14:06:51;57.55;;;28.58;;
24279;SDS011;12395;42.808;23.408;2022-11-15T14:12:21;56.30;;;28.60;;
24279;SDS011;12395;42.808;23.408;2022-11-15T14:14:52;53.42;;;28.83;;
24279;SDS011;12395;42.808;23.408;2022-11-15T14:17:33;57.20;;;29.38;;
24279;SDS011;12395;42.808;23.408;2022-11-15T14:19:59;57.33;;;29.25;;
24279;SDS011;12395;42.808;23.408;2022-11-15T14:22:26;60.15;;;29.25;;
24279;SDS011;12395;42.808;23.408;2022-11-15T14:25:07;59.78;;;29.75;;
24279;SDS011;12395;42.808;23.408;2022-11-15T14:27:44;63.97;;;30.50;;
24279;SDS011;12395;42.808;23.408;2022-11-15T14:30:30;63.95;;;31.77;;
24279;SDS011;12395;42.808;23.408;2022-11-15T14:32:55;61.90;;;31.40;;
24279;SDS011;12395;42.808;23.408;2022-11-15T14:35:21;63.10;;;32.17;;
24279;SDS011;12395;42.808;23.408;2022-11-15T14:37:48;65.55;;;31.83;;
24279;SDS011;12395;42.808;23.408;2022-11-15T14:40:16;63.28;;;32.67;;
24279;SDS011;12395;42.808;23.408;2022-11-15T14:42:44;60.17;;;31.33;;
24279;SDS011;12395;42.808;23.408;2022-11-15T14:45:15;62.35;;;31.83;;
24279;SDS011;12395;42.808;23.408;2022-11-15T14:47:42;65.00;;;32.58;;
24279;SDS011;12395;42.808;23.408;2022-11-15T14:50:26;63.63;;;31.98;;
24279;SDS011;12395;42.808;23.408;2022-11-15T14:52:52;65.63;;;33.08;;
24279;SDS011;12395;42.808;23.408;2022-11-15T14:55:23;54.72;;;28.58;;
24279;SDS011;12395;42.808;23.408;2022-11-15T14:57:50;55.13;;;27.77;;
24279;SDS011;12395;42.808;23.408;2022-11-15T15:00:17;59.58;;;29.58;;
24279;SDS011;12395;42.808;23.408;2022-11-15T15:02:44;55.30;;;27.98;;
24279;SDS011;12395;42.808;23.408;2022-11-15T15:05:30;65.80;;;31.08;;
24279;SDS011;12395;42.808;23.408;2022-11-15T15:07:57;55.58;;;28.40;;
24279;SDS011;12395;42.808;23.408;2022-11-15T15:10:23;56.63;;;28.20;;
24279;SDS011;12395;42.808;23.408;2022-11-15T15:12:49;54.42;;;27.42;;
24279;SDS011;12395;42.808;23.408;2022-11-15T15:15:16;44.83;;;24.88;;
24279;SDS011;12395;42.808;23.408;2022-11-15T15:17:45;48.97;;;25.95;;
24279;SDS011;12395;42.808;23.408;2022-11-15T15:20:10;46.78;;;24.30;;
24279;SDS011;12395;42.808;23.408;2022-11-15T15:22:36;46.00;;;24.40;;
24279;SDS011;12395;42.808;23.408;2022-11-15T15:25:02;40.60;;;23.23;;
24279;SDS011;12395;42.808;23.408;2022-11-15T15:27:35;48.80;;;26.55;;
24279;SDS011;12395;42.808;23.408;2022-11-15T15:30:00;52.22;;;27.23;;
24279;SDS011;12395;42.808;23.408;2022-11-15T15:32:26;65.88;;;32.13;;
24279;SDS011;12395;42.808;23.408;2022-11-15T15:34:51;76.18;;;34.85;;
24279;SDS011;12395;42.808;23.408;2022-11-15T15:37:26;70.80;;;34.33;;
24279;SDS011;12395;42.808;23.408;2022-11-15T15:39:52;71.50;;;36.17;;
24279;SDS011;12395;42.808;23.408;2022-11-15T15:42:18;70.73;;;35.80;;
24279;SDS011;12395;42.808;23.408;2022-11-15T15:44:45;67.97;;;33.47;;
24279;SDS011;12395;42.808;23.408;2022-11-15T15:47:11;49.13;;;25.85;;
24279;SDS011;12395;42.808;23.408;2022-11-15T15:49:39;50.58;;;26.17;;
24279;SDS011;12395;42.808;23.408;2022-11-15T15:52:04;42.60;;;22.92;;
24279;SDS011;12395;42.808;23.408;2022-11-15T15:54:30;42.20;;;23.02;;
24279;SDS011;12395;42.808;23.408;2022-11-15T15:56:55;39.45;;;21.95;;
24279;SDS011;12395;42.808;23.408;2022-11-15T15:59:20;36.78;;;20.80;;
24279;SDS011;12395;42.808;23.408;2022-11-15T16:01:46;40.97;;;21.52;;
24279;SDS011;12395;42.808;23.408;2022-11-15T16:04:11;37.90;;;20.10;;
24279;SDS011;12395;42.808;23.408;2022-11-15T16:06:37;40.10;;;21.38;;
24279;SDS011;12395;42.808;23.408;2022-11-15T16:09:05;40.30;;;22.25;;
24279;SDS011;12395;42.808;23.408;2022-11-15T16:11:31;41.60;;;21.33;;
24279;SDS011;12395;42.808;23.408;2022-11-15T16:13:56;46.58;;;25.60;;
24279;SDS011;12395;42.808;23.408;2022-11-15T16:16:22;39.50;;;20.95;;
24279;SDS011;12395;42.808;23.408;2022-11-15T16:18:48;44.45;;;23.35;;
24279;SDS011;12395;42.808;23.408;2022-11-15T16:21:14;43.72;;;23.35;;